sensor_id;sensor_type;location;lat;lon;timestamp;P1;durP1;ratioP1;P2;durP2;ratioP2
40755;SDS011;26461;45.630;9.418;2023-06-14T00:01:24;9.43;;;7.30;;
40755;SDS011;26461;45.630;9.418;2023-06-14T00:04:35;10.20;;;9.30;;
40755;SDS011;26461;45.630;9.418;2023-06-14T00:07:52;13.67;;;9.03;;
40755;SDS011;26461;45.630;9.418;2023-06-14T00:11:03;11.77;;;9.47;;
40755;SDS011;26461;45.630;9.418;2023-06-14T00:14:16;12.43;;;9.30;;
40755;SDS011;26461;45.630;9.418;2023-06-14T00:17:29;12.13;;;9.87;;
40755;SDS011;26461;45.630;9.418;2023-06-14T00:20:43;13.33;;;9.67;;
40755;SDS011;26461;45.630;9.418;2023-06-14T00:24:05;11.93;;;9.43;;
40755;SDS011;26461;45.630;9.418;2023-06-14T00:27:16;11.53;;;9.50;;
40755;SDS011;26461;45.630;9.418;2023-06-14T00:30:30;10.40;;;9.20;;
40755;SDS011;26461;45.630;9.418;2023-06-14T00:33:39;13.47;;;9.63;;
40755;SDS011;26461;45.630;9.418;2023-06-14T00:36:54;11.33;;;9.03;;
40755;SDS011;26461;45.630;9.418;2023-06-14T00:40:15;8.10;;;6.90;;
40755;SDS011;26461;45.630;9.418;2023-06-14T00:43:28;6.73;;;6.30;;
40755;SDS011;26461;45.630;9.418;2023-06-14T00:46:49;17.33;;;7.00;;
40755;SDS011;26461;45.630;9.418;2023-06-14T00:50:03;6.80;;;5.30;;
40755;SDS011;26461;45.630;9.418;2023-06-14T00:53:19;4.63;;;4.37;;
40755;SDS011;26461;45.630;9.418;2023-06-14T00:56:38;5.40;;;4.10;;
40755;SDS011;26461;45.630;9.418;2023-06-14T00:59:44;4.50;;;4.20;;
40755;SDS011;26461;45.630;9.418;2023-06-14T01:03:22;3.63;;;3.20;;
40755;SDS011;26461;45.630;9.418;2023-06-14T01:07:01;3.97;;;3.77;;
40755;SDS011;26461;45.630;9.418;2023-06-14T01:10:52;4.40;;;4.00;;
40755;SDS011;26461;45.630;9.418;2023-06-14T01:14:07;4.60;;;4.30;;
40755;SDS011;26461;45.630;9.418;2023-06-14T01:17:19;6.60;;;5.23;;
40755;SDS011;26461;45.630;9.418;2023-06-14T01:20:29;9.93;;;6.13;;
40755;SDS011;26461;45.630;9.418;2023-06-14T01:29:03;7.20;;;5.43;;
40755;SDS011;26461;45.630;9.418;2023-06-14T01:32:14;9.40;;;6.03;;
40755;SDS011;26461;45.630;9.418;2023-06-14T01:35:22;8.77;;;4.90;;
40755;SDS011;26461;45.630;9.418;2023-06-14T01:38:39;4.83;;;4.53;;
40755;SDS011;26461;45.630;9.418;2023-06-14T01:41:56;6.63;;;5.07;;
40755;SDS011;26461;45.630;9.418;2023-06-14T01:45:09;6.40;;;5.23;;
40755;SDS011;26461;45.630;9.418;2023-06-14T01:48:25;6.90;;;5.87;;
40755;SDS011;26461;45.630;9.418;2023-06-14T01:51:42;5.67;;;4.70;;
40755;SDS011;26461;45.630;9.418;2023-06-14T01:54:53;7.10;;;4.77;;
40755;SDS011;26461;45.630;9.418;2023-06-14T01:58:03;6.50;;;5.53;;
40755;SDS011;26461;45.630;9.418;2023-06-14T02:01:17;7.00;;;4.70;;
40755;SDS011;26461;45.630;9.418;2023-06-14T02:04:30;5.40;;;4.87;;
40755;SDS011;26461;45.630;9.418;2023-06-14T02:07:40;6.60;;;4.97;;
40755;SDS011;26461;45.630;9.418;2023-06-14T02:10:56;6.70;;;5.63;;
40755;SDS011;26461;45.630;9.418;2023-06-14T02:14:04;7.47;;;5.10;;
40755;SDS011;26461;45.630;9.418;2023-06-14T02:17:19;7.33;;;5.50;;
40755;SDS011;26461;45.630;9.418;2023-06-14T02:20:30;5.47;;;4.97;;
40755;SDS011;26461;45.630;9.418;2023-06-14T02:23:40;7.83;;;6.47;;
40755;SDS011;26461;45.630;9.418;2023-06-14T02:26:50;5.73;;;5.50;;
40755;SDS011;26461;45.630;9.418;2023-06-14T02:30:04;7.00;;;5.70;;
40755;SDS011;26461;45.630;9.418;2023-06-14T02:33:10;7.20;;;6.50;;
40755;SDS011;26461;45.630;9.418;2023-06-14T02:36:26;6.70;;;6.00;;
40755;SDS011;26461;45.630;9.418;2023-06-14T02:39:38;7.03;;;6.37;;
40755;SDS011;26461;45.630;9.418;2023-06-14T02:42:51;8.13;;;6.30;;
40755;SDS011;26461;45.630;9.418;2023-06-14T02:46:04;10.13;;;7.20;;
40755;SDS011;26461;45.630;9.418;2023-06-14T02:49:14;11.03;;;7.47;;
40755;SDS011;26461;45.630;9.418;2023-06-14T02:52:25;10.80;;;7.13;;
40755;SDS011;26461;45.630;9.418;2023-06-14T02:55:32;8.50;;;7.13;;
40755;SDS011;26461;45.630;9.418;2023-06-14T02:58:51;11.10;;;7.57;;
40755;SDS011;26461;45.630;9.418;2023-06-14T03:02:05;11.10;;;7.73;;
40755;SDS011;26461;45.630;9.418;2023-06-14T03:05:11;10.70;;;7.63;;
40755;SDS011;26461;45.630;9.418;2023-06-14T03:08:21;9.20;;;7.30;;
40755;SDS011;26461;45.630;9.418;2023-06-14T03:11:32;9.13;;;7.70;;
40755;SDS011;26461;45.630;9.418;2023-06-14T03:14:49;10.07;;;7.33;;
40755;SDS011;26461;45.630;9.418;2023-06-14T03:18:13;9.00;;;7.43;;
40755;SDS011;26461;45.630;9.418;2023-06-14T03:26:55;7.47;;;6.60;;
40755;SDS011;26461;45.630;9.418;2023-06-14T03:30:09;6.03;;;5.70;;
40755;SDS011;26461;45.630;9.418;2023-06-14T03:33:22;7.90;;;6.50;;
40755;SDS011;26461;45.630;9.418;2023-06-14T03:36:34;11.03;;;8.03;;
40755;SDS011;26461;45.630;9.418;2023-06-14T03:39:50;7.67;;;6.43;;
40755;SDS011;26461;45.630;9.418;2023-06-14T03:43:07;10.90;;;8.10;;
40755;SDS011;26461;45.630;9.418;2023-06-14T03:46:23;8.30;;;7.57;;
40755;SDS011;26461;45.630;9.418;2023-06-14T03:49:40;8.90;;;7.73;;
40755;SDS011;26461;45.630;9.418;2023-06-14T03:52:52;10.53;;;7.70;;
40755;SDS011;26461;45.630;9.418;2023-06-14T03:56:06;7.50;;;7.00;;
40755;SDS011;26461;45.630;9.418;2023-06-14T03:59:24;7.87;;;6.60;;
40755;SDS011;26461;45.630;9.418;2023-06-14T04:02:38;8.70;;;6.40;;
40755;SDS011;26461;45.630;9.418;2023-06-14T04:05:51;6.40;;;5.70;;
40755;SDS011;26461;45.630;9.418;2023-06-14T04:09:06;10.03;;;7.20;;
40755;SDS011;26461;45.630;9.418;2023-06-14T04:12:19;9.23;;;7.90;;
40755;SDS011;26461;45.630;9.418;2023-06-14T04:15:27;8.30;;;7.43;;
40755;SDS011;26461;45.630;9.418;2023-06-14T04:18:38;10.07;;;8.50;;
40755;SDS011;26461;45.630;9.418;2023-06-14T04:21:51;8.33;;;7.50;;
40755;SDS011;26461;45.630;9.418;2023-06-14T04:25:00;10.53;;;8.20;;
40755;SDS011;26461;45.630;9.418;2023-06-14T04:28:13;8.83;;;8.07;;
40755;SDS011;26461;45.630;9.418;2023-06-14T04:31:30;8.30;;;7.63;;
40755;SDS011;26461;45.630;9.418;2023-06-14T04:34:46;9.57;;;7.90;;
40755;SDS011;26461;45.630;9.418;2023-06-14T04:38:02;9.20;;;7.30;;
40755;SDS011;26461;45.630;9.418;2023-06-14T04:41:16;11.13;;;7.77;;
40755;SDS011;26461;45.630;9.418;2023-06-14T04:44:28;10.87;;;6.37;;
40755;SDS011;26461;45.630;9.418;2023-06-14T04:47:47;10.70;;;8.03;;
40755;SDS011;26461;45.630;9.418;2023-06-14T04:50:53;10.97;;;8.20;;
40755;SDS011;26461;45.630;9.418;2023-06-14T04:54:03;9.27;;;7.40;;
40755;SDS011;26461;45.630;9.418;2023-06-14T04:57:12;7.63;;;6.70;;
40755;SDS011;26461;45.630;9.418;2023-06-14T05:00:27;11.50;;;8.70;;
40755;SDS011;26461;45.630;9.418;2023-06-14T05:03:43;7.93;;;6.47;;
40755;SDS011;26461;45.630;9.418;2023-06-14T05:06:49;11.33;;;8.43;;
40755;SDS011;26461;45.630;9.418;2023-06-14T05:09:59;11.90;;;7.60;;
40755;SDS011;26461;45.630;9.418;2023-06-14T05:13:16;6.97;;;6.53;;
40755;SDS011;26461;45.630;9.418;2023-06-14T05:16:29;8.20;;;7.03;;
40755;SDS011;26461;45.630;9.418;2023-06-14T05:23:53;7.20;;;6.57;;
40755;SDS011;26461;45.630;9.418;2023-06-14T05:27:06;7.00;;;6.57;;
40755;SDS011;26461;45.630;9.418;2023-06-14T05:30:29;8.53;;;6.50;;
40755;SDS011;26461;45.630;9.418;2023-06-14T05:33:40;8.03;;;5.50;;
40755;SDS011;26461;45.630;9.418;2023-06-14T05:36:52;7.47;;;6.47;;
40755;SDS011;26461;45.630;9.418;2023-06-14T05:40:08;8.93;;;7.17;;
40755;SDS011;26461;45.630;9.418;2023-06-14T05:43:13;9.00;;;6.40;;
40755;SDS011;26461;45.630;9.418;2023-06-14T05:46:19;11.83;;;7.87;;
40755;SDS011;26461;45.630;9.418;2023-06-14T05:49:36;11.43;;;7.73;;
40755;SDS011;26461;45.630;9.418;2023-06-14T05:52:41;14.40;;;9.53;;
40755;SDS011;26461;45.630;9.418;2023-06-14T05:55:51;11.60;;;7.77;;
40755;SDS011;26461;45.630;9.418;2023-06-14T05:59:03;8.50;;;6.90;;
40755;SDS011;26461;45.630;9.418;2023-06-14T06:02:13;8.57;;;7.40;;
40755;SDS011;26461;45.630;9.418;2023-06-14T06:05:23;10.93;;;8.60;;
40755;SDS011;26461;45.630;9.418;2023-06-14T06:08:38;14.23;;;7.30;;
40755;SDS011;26461;45.630;9.418;2023-06-14T06:11:48;7.97;;;7.60;;
40755;SDS011;26461;45.630;9.418;2023-06-14T06:15:00;8.70;;;6.80;;
40755;SDS011;26461;45.630;9.418;2023-06-14T06:18:06;10.90;;;7.60;;
40755;SDS011;26461;45.630;9.418;2023-06-14T06:21:11;8.40;;;7.10;;
40755;SDS011;26461;45.630;9.418;2023-06-14T06:24:17;8.37;;;7.30;;
40755;SDS011;26461;45.630;9.418;2023-06-14T06:27:22;8.17;;;6.40;;
40755;SDS011;26461;45.630;9.418;2023-06-14T06:30:33;11.10;;;6.83;;
40755;SDS011;26461;45.630;9.418;2023-06-14T06:33:46;7.37;;;6.63;;
40755;SDS011;26461;45.630;9.418;2023-06-14T06:36:57;10.10;;;8.07;;
40755;SDS011;26461;45.630;9.418;2023-06-14T06:40:08;7.27;;;6.37;;
40755;SDS011;26461;45.630;9.418;2023-06-14T06:43:18;13.37;;;7.30;;
40755;SDS011;26461;45.630;9.418;2023-06-14T06:46:28;9.53;;;7.33;;
40755;SDS011;26461;45.630;9.418;2023-06-14T06:49:39;7.40;;;6.70;;
40755;SDS011;26461;45.630;9.418;2023-06-14T06:52:44;6.43;;;6.03;;
40755;SDS011;26461;45.630;9.418;2023-06-14T06:55:49;9.10;;;6.47;;
40755;SDS011;26461;45.630;9.418;2023-06-14T06:59:00;7.80;;;5.87;;
40755;SDS011;26461;45.630;9.418;2023-06-14T07:02:06;8.43;;;6.67;;
40755;SDS011;26461;45.630;9.418;2023-06-14T07:05:16;9.13;;;6.17;;
40755;SDS011;26461;45.630;9.418;2023-06-14T07:08:26;7.40;;;6.13;;
40755;SDS011;26461;45.630;9.418;2023-06-14T07:11:38;6.50;;;5.83;;
40755;SDS011;26461;45.630;9.418;2023-06-14T07:14:54;6.33;;;5.90;;
40755;SDS011;26461;45.630;9.418;2023-06-14T07:21:43;8.97;;;5.93;;
40755;SDS011;26461;45.630;9.418;2023-06-14T07:25:01;9.60;;;7.60;;
40755;SDS011;26461;45.630;9.418;2023-06-14T07:28:16;8.37;;;6.80;;
40755;SDS011;26461;45.630;9.418;2023-06-14T07:31:31;8.10;;;6.70;;
40755;SDS011;26461;45.630;9.418;2023-06-14T07:34:44;8.03;;;6.77;;
40755;SDS011;26461;45.630;9.418;2023-06-14T07:38:02;9.73;;;7.00;;
40755;SDS011;26461;45.630;9.418;2023-06-14T07:41:13;8.20;;;6.73;;
40755;SDS011;26461;45.630;9.418;2023-06-14T07:44:28;7.97;;;6.50;;
40755;SDS011;26461;45.630;9.418;2023-06-14T07:47:44;5.40;;;4.70;;
40755;SDS011;26461;45.630;9.418;2023-06-14T07:50:54;5.90;;;5.63;;
40755;SDS011;26461;45.630;9.418;2023-06-14T07:54:11;6.63;;;5.53;;
40755;SDS011;26461;45.630;9.418;2023-06-14T07:57:37;5.57;;;4.77;;
40755;SDS011;26461;45.630;9.418;2023-06-14T08:00:53;7.00;;;5.93;;
40755;SDS011;26461;45.630;9.418;2023-06-14T08:04:06;6.60;;;6.23;;
40755;SDS011;26461;45.630;9.418;2023-06-14T08:07:29;8.13;;;6.47;;
40755;SDS011;26461;45.630;9.418;2023-06-14T08:10:45;6.57;;;5.63;;
40755;SDS011;26461;45.630;9.418;2023-06-14T08:14:05;7.33;;;4.93;;
40755;SDS011;26461;45.630;9.418;2023-06-14T08:17:23;8.43;;;6.20;;
40755;SDS011;26461;45.630;9.418;2023-06-14T08:20:41;9.30;;;6.17;;
40755;SDS011;26461;45.630;9.418;2023-06-14T08:24:05;9.60;;;6.40;;
40755;SDS011;26461;45.630;9.418;2023-06-14T08:27:28;8.27;;;6.77;;
40755;SDS011;26461;45.630;9.418;2023-06-14T08:30:42;6.80;;;5.70;;
40755;SDS011;26461;45.630;9.418;2023-06-14T08:33:51;7.43;;;6.40;;
40755;SDS011;26461;45.630;9.418;2023-06-14T08:37:06;11.00;;;6.90;;
40755;SDS011;26461;45.630;9.418;2023-06-14T08:40:21;7.43;;;5.53;;
40755;SDS011;26461;45.630;9.418;2023-06-14T08:43:42;8.67;;;6.13;;
40755;SDS011;26461;45.630;9.418;2023-06-14T08:46:56;7.83;;;5.67;;
40755;SDS011;26461;45.630;9.418;2023-06-14T08:50:11;8.30;;;5.50;;
40755;SDS011;26461;45.630;9.418;2023-06-14T08:53:25;7.30;;;6.77;;
40755;SDS011;26461;45.630;9.418;2023-06-14T08:56:34;7.60;;;6.57;;
40755;SDS011;26461;45.630;9.418;2023-06-14T08:59:51;9.90;;;6.60;;
40755;SDS011;26461;45.630;9.418;2023-06-14T09:03:03;9.20;;;5.60;;
40755;SDS011;26461;45.630;9.418;2023-06-14T09:06:12;10.43;;;7.37;;
40755;SDS011;26461;45.630;9.418;2023-06-14T09:09:33;8.63;;;6.37;;
40755;SDS011;26461;45.630;9.418;2023-06-14T09:12:51;7.77;;;6.03;;
40755;SDS011;26461;45.630;9.418;2023-06-14T09:21:42;6.17;;;5.87;;
40755;SDS011;26461;45.630;9.418;2023-06-14T09:25:00;7.37;;;6.73;;
40755;SDS011;26461;45.630;9.418;2023-06-14T09:28:15;6.20;;;5.90;;
40755;SDS011;26461;45.630;9.418;2023-06-14T09:31:28;13.40;;;8.17;;
40755;SDS011;26461;45.630;9.418;2023-06-14T09:34:52;14.50;;;7.70;;
40755;SDS011;26461;45.630;9.418;2023-06-14T09:38:10;11.50;;;9.13;;
40755;SDS011;26461;45.630;9.418;2023-06-14T09:41:33;8.57;;;7.73;;
40755;SDS011;26461;45.630;9.418;2023-06-14T09:44:54;10.93;;;7.50;;
40755;SDS011;26461;45.630;9.418;2023-06-14T09:48:28;6.90;;;6.30;;
40755;SDS011;26461;45.630;9.418;2023-06-14T09:51:36;8.70;;;7.03;;
40755;SDS011;26461;45.630;9.418;2023-06-14T09:54:54;9.67;;;7.30;;
40755;SDS011;26461;45.630;9.418;2023-06-14T09:58:04;6.90;;;5.90;;
40755;SDS011;26461;45.630;9.418;2023-06-14T10:01:19;10.00;;;7.50;;
40755;SDS011;26461;45.630;9.418;2023-06-14T10:04:41;7.33;;;6.43;;
40755;SDS011;26461;45.630;9.418;2023-06-14T10:08:08;7.63;;;7.23;;
40755;SDS011;26461;45.630;9.418;2023-06-14T10:11:20;5.53;;;5.23;;
40755;SDS011;26461;45.630;9.418;2023-06-14T10:14:34;9.90;;;5.20;;
40755;SDS011;26461;45.630;9.418;2023-06-14T10:21:08;12.90;;;6.57;;
40755;SDS011;26461;45.630;9.418;2023-06-14T10:24:41;6.67;;;5.70;;
40755;SDS011;26461;45.630;9.418;2023-06-14T10:31:24;6.63;;;4.60;;
40755;SDS011;26461;45.630;9.418;2023-06-14T10:35:01;8.00;;;7.07;;
40755;SDS011;26461;45.630;9.418;2023-06-14T10:38:12;7.73;;;7.10;;
40755;SDS011;26461;45.630;9.418;2023-06-14T10:41:29;9.17;;;7.30;;
40755;SDS011;26461;45.630;9.418;2023-06-14T10:44:43;9.63;;;7.40;;
40755;SDS011;26461;45.630;9.418;2023-06-14T10:47:58;10.37;;;7.40;;
40755;SDS011;26461;45.630;9.418;2023-06-14T10:51:41;9.10;;;8.03;;
40755;SDS011;26461;45.630;9.418;2023-06-14T10:58:19;8.87;;;8.30;;
40755;SDS011;26461;45.630;9.418;2023-06-14T11:01:38;11.60;;;8.77;;
40755;SDS011;26461;45.630;9.418;2023-06-14T11:05:02;11.17;;;10.10;;
40755;SDS011;26461;45.630;9.418;2023-06-14T11:08:35;9.20;;;8.40;;
40755;SDS011;26461;45.630;9.418;2023-06-14T11:11:59;9.60;;;8.50;;
40755;SDS011;26461;45.630;9.418;2023-06-14T11:19:17;8.30;;;6.90;;
40755;SDS011;26461;45.630;9.418;2023-06-14T11:22:28;7.70;;;6.97;;
40755;SDS011;26461;45.630;9.418;2023-06-14T11:25:57;9.63;;;6.93;;
40755;SDS011;26461;45.630;9.418;2023-06-14T11:29:03;6.90;;;5.90;;
40755;SDS011;26461;45.630;9.418;2023-06-14T11:32:18;9.93;;;6.60;;
40755;SDS011;26461;45.630;9.418;2023-06-14T11:35:29;6.03;;;5.50;;
40755;SDS011;26461;45.630;9.418;2023-06-14T11:38:48;6.50;;;6.10;;
40755;SDS011;26461;45.630;9.418;2023-06-14T11:42:01;6.43;;;6.00;;
40755;SDS011;26461;45.630;9.418;2023-06-14T11:45:18;6.90;;;5.70;;
40755;SDS011;26461;45.630;9.418;2023-06-14T11:48:39;6.83;;;5.80;;
40755;SDS011;26461;45.630;9.418;2023-06-14T11:51:59;6.00;;;5.50;;
40755;SDS011;26461;45.630;9.418;2023-06-14T11:55:13;7.07;;;5.90;;
40755;SDS011;26461;45.630;9.418;2023-06-14T11:58:31;6.77;;;6.20;;
40755;SDS011;26461;45.630;9.418;2023-06-14T12:01:43;5.60;;;5.30;;
40755;SDS011;26461;45.630;9.418;2023-06-14T12:04:55;8.90;;;5.50;;
40755;SDS011;26461;45.630;9.418;2023-06-14T12:08:19;8.57;;;6.47;;
40755;SDS011;26461;45.630;9.418;2023-06-14T12:11:32;7.00;;;6.27;;
40755;SDS011;26461;45.630;9.418;2023-06-14T12:14:44;8.03;;;7.10;;
40755;SDS011;26461;45.630;9.418;2023-06-14T12:18:00;7.00;;;5.80;;
40755;SDS011;26461;45.630;9.418;2023-06-14T12:21:11;7.40;;;5.80;;
40755;SDS011;26461;45.630;9.418;2023-06-14T12:24:16;6.17;;;5.87;;
40755;SDS011;26461;45.630;9.418;2023-06-14T12:31:07;6.70;;;6.30;;
40755;SDS011;26461;45.630;9.418;2023-06-14T12:34:19;9.10;;;8.33;;
40755;SDS011;26461;45.630;9.418;2023-06-14T12:37:28;8.53;;;6.37;;
40755;SDS011;26461;45.630;9.418;2023-06-14T12:40:39;9.93;;;8.30;;
40755;SDS011;26461;45.630;9.418;2023-06-14T12:43:47;9.47;;;8.20;;
40755;SDS011;26461;45.630;9.418;2023-06-14T12:46:57;10.20;;;9.73;;
40755;SDS011;26461;45.630;9.418;2023-06-14T12:50:09;13.17;;;7.20;;
40755;SDS011;26461;45.630;9.418;2023-06-14T12:53:15;8.17;;;6.80;;
40755;SDS011;26461;45.630;9.418;2023-06-14T12:56:23;10.10;;;8.60;;
40755;SDS011;26461;45.630;9.418;2023-06-14T12:59:28;11.13;;;8.73;;
40755;SDS011;26461;45.630;9.418;2023-06-14T13:02:45;11.30;;;10.27;;
40755;SDS011;26461;45.630;9.418;2023-06-14T13:05:56;7.80;;;7.33;;
40755;SDS011;26461;45.630;9.418;2023-06-14T13:09:02;8.70;;;8.20;;
40755;SDS011;26461;45.630;9.418;2023-06-14T13:16:16;9.23;;;7.90;;
40755;SDS011;26461;45.630;9.418;2023-06-14T13:19:27;10.57;;;9.27;;
40755;SDS011;26461;45.630;9.418;2023-06-14T13:22:37;9.47;;;8.60;;
40755;SDS011;26461;45.630;9.418;2023-06-14T13:25:44;10.20;;;9.03;;
40755;SDS011;26461;45.630;9.418;2023-06-14T13:28:55;7.87;;;7.33;;
40755;SDS011;26461;45.630;9.418;2023-06-14T13:32:01;10.07;;;8.30;;
40755;SDS011;26461;45.630;9.418;2023-06-14T13:35:07;8.70;;;7.80;;
40755;SDS011;26461;45.630;9.418;2023-06-14T13:38:18;9.83;;;8.97;;
40755;SDS011;26461;45.630;9.418;2023-06-14T13:41:29;12.70;;;10.03;;
40755;SDS011;26461;45.630;9.418;2023-06-14T13:44:43;10.43;;;8.77;;
40755;SDS011;26461;45.630;9.418;2023-06-14T13:47:54;10.33;;;9.17;;
40755;SDS011;26461;45.630;9.418;2023-06-14T13:50:59;8.17;;;7.77;;
40755;SDS011;26461;45.630;9.418;2023-06-14T13:54:12;12.17;;;9.23;;
40755;SDS011;26461;45.630;9.418;2023-06-14T13:57:24;10.63;;;9.83;;
40755;SDS011;26461;45.630;9.418;2023-06-14T14:00:30;11.20;;;10.03;;
40755;SDS011;26461;45.630;9.418;2023-06-14T14:03:42;13.30;;;9.40;;
40755;SDS011;26461;45.630;9.418;2023-06-14T14:06:57;8.87;;;8.27;;
40755;SDS011;26461;45.630;9.418;2023-06-14T14:14:11;12.00;;;8.90;;
40755;SDS011;26461;45.630;9.418;2023-06-14T14:17:16;10.43;;;8.67;;
40755;SDS011;26461;45.630;9.418;2023-06-14T14:20:30;8.20;;;6.00;;
40755;SDS011;26461;45.630;9.418;2023-06-14T14:23:41;9.53;;;9.07;;
40755;SDS011;26461;45.630;9.418;2023-06-14T14:26:52;6.07;;;5.77;;
40755;SDS011;26461;45.630;9.418;2023-06-14T14:29:58;6.30;;;5.83;;
40755;SDS011;26461;45.630;9.418;2023-06-14T14:33:04;9.57;;;8.30;;
40755;SDS011;26461;45.630;9.418;2023-06-14T14:36:13;10.00;;;8.40;;
40755;SDS011;26461;45.630;9.418;2023-06-14T14:39:25;7.60;;;6.40;;
40755;SDS011;26461;45.630;9.418;2023-06-14T14:42:41;6.90;;;5.33;;
40755;SDS011;26461;45.630;9.418;2023-06-14T14:45:58;7.93;;;7.50;;
40755;SDS011;26461;45.630;9.418;2023-06-14T14:49:18;7.97;;;5.97;;
40755;SDS011;26461;45.630;9.418;2023-06-14T14:52:32;8.37;;;6.57;;
40755;SDS011;26461;45.630;9.418;2023-06-14T14:55:56;7.10;;;6.00;;
40755;SDS011;26461;45.630;9.418;2023-06-14T14:59:11;9.40;;;7.73;;
40755;SDS011;26461;45.630;9.418;2023-06-14T15:02:24;10.37;;;9.43;;
40755;SDS011;26461;45.630;9.418;2023-06-14T15:05:36;7.77;;;7.07;;
40755;SDS011;26461;45.630;9.418;2023-06-14T15:08:49;5.67;;;5.37;;
40755;SDS011;26461;45.630;9.418;2023-06-14T15:11:58;6.73;;;5.90;;
40755;SDS011;26461;45.630;9.418;2023-06-14T15:15:08;8.30;;;7.37;;
40755;SDS011;26461;45.630;9.418;2023-06-14T15:18:20;5.50;;;5.20;;
40755;SDS011;26461;45.630;9.418;2023-06-14T15:21:32;6.43;;;6.10;;
40755;SDS011;26461;45.630;9.418;2023-06-14T15:24:43;6.80;;;6.40;;
40755;SDS011;26461;45.630;9.418;2023-06-14T15:27:54;8.70;;;7.27;;
40755;SDS011;26461;45.630;9.418;2023-06-14T15:31:05;7.83;;;7.13;;
40755;SDS011;26461;45.630;9.418;2023-06-14T15:34:10;7.60;;;7.20;;
40755;SDS011;26461;45.630;9.418;2023-06-14T15:37:24;7.47;;;6.63;;
40755;SDS011;26461;45.630;9.418;2023-06-14T15:40:35;6.50;;;6.10;;
40755;SDS011;26461;45.630;9.418;2023-06-14T15:43:47;5.93;;;5.73;;
40755;SDS011;26461;45.630;9.418;2023-06-14T15:47:03;25.60;;;6.37;;
40755;SDS011;26461;45.630;9.418;2023-06-14T15:50:15;6.83;;;5.50;;
40755;SDS011;26461;45.630;9.418;2023-06-14T15:53:29;6.47;;;6.07;;
40755;SDS011;26461;45.630;9.418;2023-06-14T15:56:47;6.10;;;5.80;;
40755;SDS011;26461;45.630;9.418;2023-06-14T15:59:55;6.57;;;6.20;;
40755;SDS011;26461;45.630;9.418;2023-06-14T16:03:09;5.70;;;5.40;;
40755;SDS011;26461;45.630;9.418;2023-06-14T16:06:19;5.83;;;5.53;;
40755;SDS011;26461;45.630;9.418;2023-06-14T16:09:30;7.80;;;6.83;;
40755;SDS011;26461;45.630;9.418;2023-06-14T16:12:36;11.53;;;7.37;;
40755;SDS011;26461;45.630;9.418;2023-06-14T16:15:47;5.67;;;5.37;;
40755;SDS011;26461;45.630;9.418;2023-06-14T16:18:53;7.73;;;7.33;;
40755;SDS011;26461;45.630;9.418;2023-06-14T16:21:59;7.20;;;6.80;;
40755;SDS011;26461;45.630;9.418;2023-06-14T16:25:05;7.33;;;5.70;;
40755;SDS011;26461;45.630;9.418;2023-06-14T16:28:12;7.10;;;5.63;;
40755;SDS011;26461;45.630;9.418;2023-06-14T16:31:24;7.97;;;7.20;;
40755;SDS011;26461;45.630;9.418;2023-06-14T16:34:30;7.20;;;5.40;;
40755;SDS011;26461;45.630;9.418;2023-06-14T16:37:45;5.07;;;4.77;;
40755;SDS011;26461;45.630;9.418;2023-06-14T16:41:02;8.20;;;7.80;;
40755;SDS011;26461;45.630;9.418;2023-06-14T16:44:14;7.37;;;5.77;;
40755;SDS011;26461;45.630;9.418;2023-06-14T16:47:25;7.90;;;7.53;;
40755;SDS011;26461;45.630;9.418;2023-06-14T16:50:36;7.80;;;6.90;;
40755;SDS011;26461;45.630;9.418;2023-06-14T16:53:53;7.10;;;6.70;;
40755;SDS011;26461;45.630;9.418;2023-06-14T16:57:04;8.60;;;7.80;;
40755;SDS011;26461;45.630;9.418;2023-06-14T17:00:21;5.77;;;5.47;;
40755;SDS011;26461;45.630;9.418;2023-06-14T17:03:37;9.13;;;7.20;;
40755;SDS011;26461;45.630;9.418;2023-06-14T17:06:43;6.90;;;6.00;;
40755;SDS011;26461;45.630;9.418;2023-06-14T17:09:56;7.40;;;5.50;;
40755;SDS011;26461;45.630;9.418;2023-06-14T17:13:07;5.93;;;5.53;;
40755;SDS011;26461;45.630;9.418;2023-06-14T17:16:18;7.20;;;6.80;;
40755;SDS011;26461;45.630;9.418;2023-06-14T17:19:30;5.80;;;5.50;;
40755;SDS011;26461;45.630;9.418;2023-06-14T17:22:40;6.80;;;6.40;;
40755;SDS011;26461;45.630;9.418;2023-06-14T17:25:51;7.13;;;6.63;;
40755;SDS011;26461;45.630;9.418;2023-06-14T17:29:06;6.77;;;6.37;;
40755;SDS011;26461;45.630;9.418;2023-06-14T17:32:22;7.27;;;6.07;;
40755;SDS011;26461;45.630;9.418;2023-06-14T17:35:34;6.00;;;5.73;;
40755;SDS011;26461;45.630;9.418;2023-06-14T17:38:47;7.73;;;6.60;;
40755;SDS011;26461;45.630;9.418;2023-06-14T17:41:58;5.90;;;5.50;;
40755;SDS011;26461;45.630;9.418;2023-06-14T17:45:09;6.03;;;5.47;;
40755;SDS011;26461;45.630;9.418;2023-06-14T17:48:15;8.03;;;5.43;;
40755;SDS011;26461;45.630;9.418;2023-06-14T17:51:29;5.53;;;4.97;;
40755;SDS011;26461;45.630;9.418;2023-06-14T17:54:40;4.60;;;4.30;;
40755;SDS011;26461;45.630;9.418;2023-06-14T17:57:53;5.07;;;4.70;;
40755;SDS011;26461;45.630;9.418;2023-06-14T18:00:59;5.37;;;4.80;;
40755;SDS011;26461;45.630;9.418;2023-06-14T18:04:04;5.23;;;4.80;;
40755;SDS011;26461;45.630;9.418;2023-06-14T18:07:10;4.83;;;4.57;;
40755;SDS011;26461;45.630;9.418;2023-06-14T18:10:20;7.47;;;5.53;;
40755;SDS011;26461;45.630;9.418;2023-06-14T18:13:29;4.60;;;4.30;;
40755;SDS011;26461;45.630;9.418;2023-06-14T18:16:48;6.77;;;4.83;;
40755;SDS011;26461;45.630;9.418;2023-06-14T18:19:54;5.33;;;5.03;;
40755;SDS011;26461;45.630;9.418;2023-06-14T18:23:01;5.40;;;5.10;;
40755;SDS011;26461;45.630;9.418;2023-06-14T18:26:11;4.70;;;4.40;;
40755;SDS011;26461;45.630;9.418;2023-06-14T18:29:26;7.80;;;5.03;;
40755;SDS011;26461;45.630;9.418;2023-06-14T18:32:37;5.30;;;5.03;;
40755;SDS011;26461;45.630;9.418;2023-06-14T18:35:47;4.50;;;4.20;;
40755;SDS011;26461;45.630;9.418;2023-06-14T18:38:58;4.90;;;4.60;;
40755;SDS011;26461;45.630;9.418;2023-06-14T18:42:08;5.93;;;5.67;;
40755;SDS011;26461;45.630;9.418;2023-06-14T18:45:15;5.57;;;4.13;;
40755;SDS011;26461;45.630;9.418;2023-06-14T18:48:26;7.87;;;5.00;;
40755;SDS011;26461;45.630;9.418;2023-06-14T18:51:42;11.70;;;5.73;;
40755;SDS011;26461;45.630;9.418;2023-06-14T18:54:55;5.03;;;4.60;;
40755;SDS011;26461;45.630;9.418;2023-06-14T18:58:01;4.37;;;4.00;;
40755;SDS011;26461;45.630;9.418;2023-06-14T19:01:07;6.83;;;6.00;;
40755;SDS011;26461;45.630;9.418;2023-06-14T19:04:13;7.30;;;6.90;;
40755;SDS011;26461;45.630;9.418;2023-06-14T19:07:23;6.20;;;5.37;;
40755;SDS011;26461;45.630;9.418;2023-06-14T19:10:42;6.50;;;5.47;;
40755;SDS011;26461;45.630;9.418;2023-06-14T19:13:58;6.67;;;5.57;;
40755;SDS011;26461;45.630;9.418;2023-06-14T19:17:12;6.00;;;5.37;;
40755;SDS011;26461;45.630;9.418;2023-06-14T19:20:18;6.57;;;6.20;;
40755;SDS011;26461;45.630;9.418;2023-06-14T19:23:37;4.53;;;4.27;;
40755;SDS011;26461;45.630;9.418;2023-06-14T19:26:50;7.13;;;6.73;;
40755;SDS011;26461;45.630;9.418;2023-06-14T19:30:08;8.97;;;6.17;;
40755;SDS011;26461;45.630;9.418;2023-06-14T19:33:29;5.90;;;5.60;;
40755;SDS011;26461;45.630;9.418;2023-06-14T19:36:46;6.30;;;5.63;;
40755;SDS011;26461;45.630;9.418;2023-06-14T19:40:03;5.13;;;4.90;;
40755;SDS011;26461;45.630;9.418;2023-06-14T19:43:14;6.77;;;4.80;;
40755;SDS011;26461;45.630;9.418;2023-06-14T19:46:35;5.37;;;5.07;;
40755;SDS011;26461;45.630;9.418;2023-06-14T19:49:46;6.40;;;5.40;;
40755;SDS011;26461;45.630;9.418;2023-06-14T19:53:01;7.03;;;5.40;;
40755;SDS011;26461;45.630;9.418;2023-06-14T19:56:13;5.90;;;5.60;;
40755;SDS011;26461;45.630;9.418;2023-06-14T19:59:27;6.30;;;6.00;;
40755;SDS011;26461;45.630;9.418;2023-06-14T20:02:39;6.97;;;6.03;;
40755;SDS011;26461;45.630;9.418;2023-06-14T20:06:02;8.67;;;5.37;;
40755;SDS011;26461;45.630;9.418;2023-06-14T20:09:15;6.53;;;4.80;;
40755;SDS011;26461;45.630;9.418;2023-06-14T20:12:38;4.50;;;4.00;;